createdAt,value
2022-10-18T00:01:02.434Z,57.24
2022-10-18T00:03:30.538Z,57.42
2022-10-18T00:05:59.017Z,57.77
2022-10-18T00:08:27.396Z,57.49
2022-10-18T00:10:56.761Z,58.00
2022-10-18T00:13:24.889Z,58.15
2022-10-18T00:15:55.005Z,58.49
2022-10-18T00:18:23.312Z,58.23
2022-10-18T00:20:58.931Z,58.77
2022-10-18T00:23:27.833Z,59.19
2022-10-18T00:26:05.621Z,58.70
2022-10-18T00:28:34.959Z,58.61
2022-10-18T00:31:14.648Z,59.99
2022-10-18T00:33:43.256Z,57.63
2022-10-18T00:36:12.100Z,58.66
2022-10-18T00:38:40.623Z,59.83
2022-10-18T00:41:11.884Z,59.24
2022-10-18T00:43:59.190Z,59.75
2022-10-18T00:46:29.300Z,59.90
2022-10-18T00:48:59.412Z,60.94
2022-10-18T00:51:31.436Z,61.34
2022-10-18T00:53:59.846Z,62.32
2022-10-18T00:56:29.876Z,62.48
2022-10-18T00:58:58.680Z,63.32
2022-10-18T01:01:28.430Z,62.40
2022-10-18T01:03:57.388Z,63.59
2022-10-18T01:06:26.136Z,62.87
2022-10-18T01:09:12.884Z,62.28
2022-10-18T01:11:57.035Z,62.47
2022-10-18T01:14:36.656Z,62.83
2022-10-18T01:17:13.267Z,63.77
2022-10-18T01:20:03.253Z,63.56
2022-10-18T01:22:39.050Z,63.81
2022-10-18T01:25:23.970Z,64.70
2022-10-18T01:28:02.072Z,64.44
2022-10-18T01:30:43.895Z,65.01
2022-10-18T01:33:24.019Z,64.63
2022-10-18T01:35:58.712Z,64.06
2022-10-18T01:38:27.371Z,64.85
2022-10-18T01:40:56.360Z,64.52
2022-10-18T01:43:25.481Z,65.63
2022-10-18T01:45:55.936Z,64.59
2022-10-18T01:48:24.937Z,65.22
2022-10-18T01:50:54.107Z,64.90
2022-10-18T01:53:23.287Z,64.97
2022-10-18T01:55:56.269Z,63.02
2022-10-18T01:58:32.046Z,62.80
2022-10-18T02:03:48.186Z,64.16
2022-10-18T02:06:22.546Z,63.87
2022-10-18T02:08:56.982Z,64.46
2022-10-18T02:11:26.055Z,64.27
2022-10-18T02:13:55.065Z,63.27
2022-10-18T02:16:29.596Z,61.73
2022-10-18T02:19:02.069Z,61.70
2022-10-18T02:21:31.935Z,61.56
2022-10-18T02:24:03.556Z,59.69
2022-10-18T02:26:31.614Z,59.49
2022-10-18T02:28:59.587Z,59.55
2022-10-18T02:31:33.126Z,60.21
2022-10-18T02:34:06.070Z,60.78
2022-10-18T02:36:39.949Z,61.01
2022-10-18T02:39:14.361Z,60.47
2022-10-18T02:41:43.574Z,61.78
2022-10-18T02:44:11.605Z,60.87
2022-10-18T02:46:41.965Z,61.22
2022-10-18T02:49:09.876Z,60.67
2022-10-18T02:51:37.832Z,60.65
2022-10-18T02:54:06.415Z,60.43
2022-10-18T02:56:34.438Z,60.59
2022-10-18T02:59:03.697Z,61.26
2022-10-18T03:01:33.101Z,60.31
2022-10-18T03:04:03.060Z,60.66
2022-10-18T03:06:31.060Z,60.59
2022-10-18T03:08:59.154Z,61.12
2022-10-18T03:11:27.091Z,62.30
2022-10-18T03:13:54.980Z,61.84
2022-10-18T03:16:22.935Z,62.37
2022-10-18T03:18:50.914Z,62.49
2022-10-18T03:21:20.383Z,62.40
2022-10-18T03:23:48.355Z,62.54
2022-10-18T03:26:16.288Z,62.33
2022-10-18T03:28:44.202Z,62.42
2022-10-18T03:31:12.264Z,63.28
2022-10-18T03:33:40.289Z,62.54
2022-10-18T03:36:08.393Z,62.91
2022-10-18T03:38:37.778Z,63.24
2022-10-18T03:41:06.018Z,63.31
2022-10-18T03:43:33.952Z,63.47
2022-10-18T03:46:02.116Z,62.12
2022-10-18T03:48:30.079Z,62.29
2022-10-18T03:50:58.166Z,62.43
2022-10-18T03:53:26.091Z,61.83
2022-10-18T03:55:56.775Z,62.07
2022-10-18T03:58:25.120Z,61.93
2022-10-18T04:00:54.138Z,61.79
2022-10-18T04:03:23.807Z,62.17
2022-10-18T04:05:51.850Z,61.11
2022-10-18T04:08:19.868Z,59.82
2022-10-18T04:10:47.960Z,59.33
2022-10-18T04:13:17.292Z,59.17
2022-10-18T04:15:45.302Z,57.94
2022-10-18T04:18:13.275Z,58.10
2022-10-18T04:20:41.231Z,57.83
2022-10-18T04:23:09.165Z,56.73
2022-10-18T04:25:37.158Z,56.61
2022-10-18T04:28:05.276Z,55.93
2022-10-18T04:30:34.730Z,55.38
2022-10-18T04:33:02.867Z,55.24
2022-10-18T04:35:30.820Z,55.26
2022-10-18T04:37:58.767Z,54.69
2022-10-18T04:40:26.751Z,54.49
2022-10-18T04:42:54.871Z,54.38
2022-10-18T04:45:22.871Z,53.69
2022-10-18T04:47:52.232Z,53.68
2022-10-18T04:50:20.175Z,53.82
2022-10-18T04:55:21.696Z,53.38
2022-10-18T04:57:49.695Z,53.85
2022-10-18T05:00:17.832Z,53.46
2022-10-18T05:02:45.806Z,54.72
2022-10-18T05:05:15.141Z,53.67
2022-10-18T05:07:43.279Z,54.40
2022-10-18T05:10:11.377Z,55.05
2022-10-18T05:12:39.314Z,55.40
2022-10-18T05:15:07.930Z,55.56
2022-10-18T05:17:35.914Z,55.87
2022-10-18T05:20:04.162Z,55.85
2022-10-18T05:22:33.943Z,56.89
2022-10-18T05:25:02.010Z,56.21
2022-10-18T05:27:30.130Z,55.86
2022-10-18T05:30:01.241Z,56.91
2022-10-18T05:32:32.907Z,56.59
2022-10-18T05:35:01.253Z,56.83
2022-10-18T05:37:29.233Z,56.57
2022-10-18T05:39:58.570Z,56.74
2022-10-18T05:42:26.716Z,57.06
2022-10-18T05:44:54.638Z,57.06
2022-10-18T05:47:22.811Z,57.11
2022-10-18T05:53:06.837Z,54.86
2022-10-18T05:56:50.826Z,54.59
2022-10-18T05:59:20.269Z,54.35
2022-10-18T06:01:48.217Z,54.22
2022-10-18T06:04:17.915Z,54.03
2022-10-18T06:06:45.962Z,53.99
2022-10-18T06:09:13.909Z,54.26
2022-10-18T06:11:41.861Z,54.15
2022-10-18T06:14:10.848Z,53.91
2022-10-18T06:16:40.103Z,54.08
2022-10-18T06:19:08.479Z,53.82
2022-10-18T06:21:36.413Z,54.78
2022-10-18T06:24:04.413Z,55.21
2022-10-18T06:26:34.581Z,56.40
2022-10-18T06:29:02.567Z,56.53
2022-10-18T06:31:30.573Z,57.13
2022-10-18T06:34:00.085Z,58.01
2022-10-18T06:36:28.409Z,57.67
2022-10-18T06:38:56.790Z,55.78
2022-10-18T06:41:24.917Z,55.65
2022-10-18T06:43:56.964Z,54.29
2022-10-18T06:46:25.996Z,52.91
2022-10-18T06:48:53.732Z,48.58
2022-10-18T06:51:23.078Z,47.37
2022-10-18T06:53:59.702Z,46.65
2022-10-18T06:56:39.415Z,46.04
2022-10-18T06:59:07.602Z,45.03
2022-10-18T07:01:35.743Z,44.73
2022-10-18T07:04:03.978Z,43.96
2022-10-18T07:06:33.317Z,43.49
2022-10-18T07:09:03.047Z,42.80
2022-10-18T07:11:30.977Z,42.91
2022-10-18T07:14:03.207Z,42.76
2022-10-18T07:16:32.358Z,41.29
2022-10-18T07:19:00.433Z,40.42
2022-10-18T07:21:28.912Z,40.29
2022-10-18T07:23:58.676Z,39.60
2022-10-18T07:26:29.145Z,39.43
2022-10-18T07:29:00.408Z,39.13
2022-10-18T07:31:29.307Z,38.63
2022-10-18T07:33:57.514Z,38.45
2022-10-18T07:36:25.921Z,37.60
2022-10-18T07:38:54.660Z,36.96
2022-10-18T07:41:24.450Z,37.29
2022-10-18T07:43:53.848Z,36.07
2022-10-18T07:46:23.303Z,36.23
2022-10-18T07:48:51.699Z,35.75
2022-10-18T07:51:21.056Z,35.65
2022-10-18T07:53:49.434Z,35.09
2022-10-18T07:56:21.045Z,35.33
2022-10-18T07:58:52.433Z,34.78
2022-10-18T08:01:21.764Z,34.70
2022-10-18T08:03:50.146Z,34.47
2022-10-18T08:06:20.156Z,33.74
2022-10-18T08:08:48.604Z,32.70
2022-10-18T08:11:18.861Z,32.98
2022-10-18T08:13:47.210Z,31.97
2022-10-18T08:16:20.444Z,32.12
2022-10-18T08:18:48.511Z,31.34
2022-10-18T08:21:18.203Z,31.42
2022-10-18T08:23:46.536Z,30.75
2022-10-18T08:26:17.044Z,30.63
2022-10-18T08:28:53.708Z,30.45
2022-10-18T08:31:33.042Z,28.88
2022-10-18T08:34:01.050Z,28.68
2022-10-18T08:36:29.134Z,27.91
2022-10-18T08:38:57.081Z,27.62
2022-10-18T08:41:43.468Z,26.93
2022-10-18T08:44:19.242Z,27.05
2022-10-18T08:46:51.210Z,26.95
2022-10-18T08:49:26.743Z,26.08
2022-10-18T08:51:55.289Z,25.84
2022-10-18T08:54:31.200Z,26.03
2022-10-18T08:57:01.832Z,25.94
2022-10-18T08:59:35.148Z,25.84
2022-10-18T09:02:18.664Z,26.95
2022-10-18T09:04:52.982Z,25.41
2022-10-18T09:07:42.916Z,25.57
2022-10-18T09:10:26.823Z,25.06
2022-10-18T09:13:11.609Z,24.93
2022-10-18T09:15:50.032Z,24.29
2022-10-18T09:18:34.401Z,24.37
2022-10-18T09:21:09.803Z,25.03
2022-10-18T09:23:47.401Z,24.38
2022-10-18T09:26:19.511Z,24.02
2022-10-18T09:29:00.091Z,22.59
2022-10-18T09:31:38.022Z,23.02
2022-10-18T09:34:13.615Z,22.56
2022-10-18T09:36:42.496Z,22.25
2022-10-18T09:39:14.140Z,22.25
2022-10-18T09:41:48.617Z,20.86
2022-10-18T09:44:22.214Z,22.10
2022-10-18T09:46:54.580Z,21.56
2022-10-18T09:49:29.371Z,20.19
2022-10-18T09:52:01.138Z,21.21
2022-10-18T09:54:35.244Z,21.13
2022-10-18T09:57:07.780Z,20.11
2022-10-18T09:59:39.624Z,20.41
2022-10-18T10:02:10.874Z,21.30
2022-10-18T10:04:40.204Z,21.97
2022-10-18T10:07:12.976Z,19.88
2022-10-18T10:09:46.155Z,20.00
2022-10-18T10:12:32.109Z,19.34
2022-10-18T10:15:19.942Z,19.17
2022-10-18T10:17:57.347Z,19.63
2022-10-18T10:20:34.050Z,19.57
2022-10-18T10:23:09.632Z,19.57
2022-10-18T10:25:39.204Z,18.83
2022-10-18T10:28:14.398Z,18.81
2022-10-18T10:30:42.398Z,18.59
2022-10-18T10:33:35.141Z,18.36
2022-10-18T10:36:08.110Z,18.74
2022-10-18T10:38:36.077Z,19.21
2022-10-18T10:41:04.049Z,18.40
2022-10-18T10:43:39.107Z,18.03
2022-10-18T10:46:10.640Z,18.59
2022-10-18T10:48:49.001Z,18.36
2022-10-18T10:51:29.865Z,19.00
2022-10-18T10:54:03.377Z,19.68
2022-10-18T10:56:34.185Z,20.13
2022-10-18T10:59:11.314Z,19.19
2022-10-18T11:01:39.488Z,18.59
2022-10-18T11:04:29.552Z,18.60
2022-10-18T11:07:05.858Z,18.18
2022-10-18T11:09:45.332Z,18.23
2022-10-18T11:12:25.034Z,18.27
2022-10-18T11:15:00.692Z,17.67
2022-10-18T11:17:34.007Z,17.46
2022-10-18T11:20:14.535Z,17.60
2022-10-18T11:22:51.148Z,17.25
2022-10-18T11:25:19.297Z,17.19
2022-10-18T11:27:50.153Z,16.83
2022-10-18T11:30:42.856Z,16.83
2022-10-18T11:33:33.604Z,17.41
2022-10-18T11:36:16.593Z,16.19
2022-10-18T11:38:52.003Z,16.88
2022-10-18T11:41:32.354Z,16.50
2022-10-18T11:44:03.714Z,16.39
2022-10-18T11:46:48.827Z,16.65
2022-10-18T11:49:27.448Z,16.09
2022-10-18T11:52:08.771Z,16.44
2022-10-18T11:54:51.477Z,16.26
2022-10-18T11:57:33.295Z,16.58
2022-10-18T12:00:16.762Z,16.38
2022-10-18T12:03:01.873Z,16.68
2022-10-18T12:05:31.401Z,16.42
2022-10-18T12:08:06.235Z,15.77
2022-10-18T12:10:52.603Z,16.23
2022-10-18T12:13:34.319Z,16.70
2022-10-18T12:16:05.276Z,15.81
2022-10-18T12:18:34.627Z,15.40
2022-10-18T12:21:03.657Z,15.85
2022-10-18T12:23:39.179Z,16.10
2022-10-18T12:26:11.694Z,16.11
2022-10-18T12:28:50.113Z,16.28
2022-10-18T12:31:24.072Z,16.10
2022-10-18T12:33:56.287Z,16.29
2022-10-18T12:36:40.663Z,15.87
2022-10-18T12:39:16.486Z,15.85
2022-10-18T12:41:48.893Z,15.60
2022-10-18T12:44:22.236Z,15.75
2022-10-18T12:46:53.408Z,15.62
2022-10-18T12:49:28.615Z,16.27
2022-10-18T12:51:59.561Z,16.31
2022-10-18T12:54:31.144Z,15.89
2022-10-18T12:57:01.892Z,15.93
2022-10-18T12:59:47.757Z,16.21
2022-10-18T13:02:31.953Z,16.90
2022-10-18T13:05:02.398Z,16.83
2022-10-18T13:07:43.401Z,17.29
2022-10-18T13:10:42.183Z,17.40
2022-10-18T13:13:55.159Z,16.65
2022-10-18T13:16:36.755Z,16.35
2022-10-18T13:19:20.850Z,16.40
2022-10-18T13:21:58.021Z,16.76
2022-10-18T13:24:33.684Z,16.66
2022-10-18T13:27:36.772Z,16.75
2022-10-18T13:30:33.898Z,17.16
2022-10-18T13:33:27.652Z,17.89
2022-10-18T13:35:58.256Z,17.35
2022-10-18T13:38:38.235Z,17.38
2022-10-18T13:41:08.699Z,17.51
2022-10-18T13:43:57.841Z,17.06
2022-10-18T13:47:20.320Z,17.77
2022-10-18T13:50:27.642Z,17.59
2022-10-18T13:53:37.282Z,17.99
2022-10-18T13:56:26.209Z,18.11
2022-10-18T13:59:14.942Z,17.59
2022-10-18T14:01:57.083Z,18.22
2022-10-18T14:05:10.567Z,18.18
2022-10-18T14:07:45.885Z,18.67
2022-10-18T14:10:43.412Z,18.74
2022-10-18T14:13:21.335Z,18.50
2022-10-18T14:15:51.978Z,18.74
2022-10-18T14:18:27.963Z,19.11
2022-10-18T14:21:13.363Z,19.19
2022-10-18T14:23:45.597Z,19.41
2022-10-18T14:26:16.342Z,19.20
2022-10-18T14:29:00.720Z,19.67
2022-10-18T14:31:29.365Z,19.63
2022-10-18T14:33:59.593Z,19.62
2022-10-18T14:36:30.566Z,19.74
2022-10-18T14:39:00.429Z,19.42
2022-10-18T14:41:29.630Z,20.10
2022-10-18T14:44:18.569Z,19.64
2022-10-18T14:46:48.602Z,20.51
2022-10-18T14:49:20.349Z,21.28
2022-10-18T14:51:51.349Z,21.90
2022-10-18T14:54:25.095Z,21.71
2022-10-18T14:56:56.000Z,22.14
2022-10-18T14:59:25.707Z,22.34
2022-10-18T15:01:59.683Z,23.24
2022-10-18T15:04:33.025Z,23.45
2022-10-18T15:07:03.100Z,23.46
2022-10-18T15:09:32.801Z,23.77
2022-10-18T15:12:01.841Z,24.74
2022-10-18T15:14:36.233Z,24.71
2022-10-18T15:17:21.697Z,26.04
2022-10-18T15:20:01.965Z,26.33
2022-10-18T15:22:34.294Z,27.12
2022-10-18T15:25:14.538Z,27.65
2022-10-18T15:27:46.179Z,27.27
2022-10-18T15:30:20.501Z,28.32
2022-10-18T15:32:50.844Z,28.43
2022-10-18T15:35:26.406Z,28.26
2022-10-18T15:37:56.336Z,28.56
2022-10-18T15:40:42.825Z,28.69
2022-10-18T15:43:37.884Z,29.48
2022-10-18T15:46:07.301Z,30.26
2022-10-18T15:48:38.965Z,30.28
2022-10-18T15:51:09.628Z,30.36
2022-10-18T15:53:45.059Z,31.11
2022-10-18T15:56:32.806Z,31.28
2022-10-18T15:59:04.073Z,31.91
2022-10-18T16:01:38.202Z,31.73
2022-10-18T16:04:10.413Z,32.54
2022-10-18T16:06:40.068Z,33.37
2022-10-18T16:09:08.383Z,33.47
2022-10-18T16:11:36.343Z,33.69
2022-10-18T16:14:04.427Z,34.19
2022-10-18T16:16:32.532Z,34.11
2022-10-18T16:19:01.039Z,34.58
2022-10-18T16:21:31.403Z,34.60
2022-10-18T16:24:01.057Z,35.57
2022-10-18T16:26:30.073Z,35.71
2022-10-18T16:28:59.256Z,36.50
2022-10-18T16:31:28.983Z,36.78
2022-10-18T16:33:57.679Z,37.43
2022-10-18T16:36:29.012Z,37.50
2022-10-18T16:38:57.812Z,38.12
2022-10-18T16:41:26.988Z,37.96
2022-10-18T16:43:55.501Z,38.29
2022-10-18T16:46:27.338Z,38.40
2022-10-18T16:48:56.402Z,38.85
2022-10-18T16:51:25.029Z,39.35
2022-10-18T16:53:53.761Z,39.41
2022-10-18T16:56:23.556Z,40.05
2022-10-18T16:58:53.953Z,40.20
2022-10-18T17:01:23.824Z,39.78
2022-10-18T17:03:52.325Z,39.45
2022-10-18T17:06:22.831Z,39.68
2022-10-18T17:08:51.905Z,39.16
2022-10-18T17:11:21.532Z,39.24
2022-10-18T17:13:49.651Z,39.07
2022-10-18T17:16:25.057Z,39.27
2022-10-18T17:18:53.066Z,39.79
2022-10-18T17:21:21.200Z,40.08
2022-10-18T17:23:49.618Z,39.93
2022-10-18T17:26:34.279Z,40.34
2022-10-18T17:29:05.390Z,40.00
2022-10-18T17:31:35.744Z,40.24
2022-10-18T17:34:04.738Z,40.70
2022-10-18T17:36:33.311Z,41.00
2022-10-18T17:39:01.444Z,40.94
2022-10-18T17:41:29.515Z,41.51
2022-10-18T17:43:57.675Z,41.53
2022-10-18T17:46:25.605Z,41.53
2022-10-18T17:48:55.079Z,41.41
2022-10-18T17:51:23.536Z,41.97
2022-10-18T17:53:51.535Z,41.77
2022-10-18T17:56:19.488Z,41.97
2022-10-18T17:58:51.645Z,42.02
2022-10-18T18:01:21.943Z,42.13
2022-10-18T18:03:50.552Z,42.58
2022-10-18T18:06:21.951Z,42.05
2022-10-18T18:08:50.743Z,41.53
2022-10-18T18:11:18.932Z,41.27
2022-10-18T18:13:47.065Z,41.17
2022-10-18T18:16:17.552Z,41.00
2022-10-18T18:18:46.432Z,42.16
2022-10-18T18:21:14.733Z,42.66
2022-10-18T18:23:44.267Z,42.63
2022-10-18T18:26:14.916Z,43.31
2022-10-18T18:28:43.063Z,44.31
2022-10-18T18:31:13.269Z,44.09
2022-10-18T18:33:41.969Z,44.70
2022-10-18T18:36:10.870Z,44.48
2022-10-18T18:41:29.602Z,44.57
2022-10-18T18:44:00.516Z,45.06
2022-10-18T18:46:32.929Z,45.08
2022-10-18T18:49:00.954Z,45.44
2022-10-18T18:51:29.033Z,45.40
2022-10-18T18:53:56.981Z,46.88
2022-10-18T18:56:26.646Z,46.26
2022-10-18T18:58:56.861Z,47.09
2022-10-18T19:01:27.018Z,47.80
2022-10-18T19:04:03.676Z,48.21
2022-10-18T19:06:34.037Z,47.79
2022-10-18T19:09:04.480Z,47.25
2022-10-18T19:11:35.114Z,47.68
2022-10-18T19:14:06.271Z,47.27
2022-10-18T19:16:36.017Z,46.46
2022-10-18T19:19:09.214Z,47.63
2022-10-18T19:21:40.023Z,47.17
2022-10-18T19:24:16.490Z,46.77
2022-10-18T19:26:49.721Z,46.61
2022-10-18T19:29:28.667Z,46.93
2022-10-18T19:31:57.909Z,47.89
2022-10-18T19:34:27.509Z,47.57
2022-10-18T19:36:55.938Z,48.17
2022-10-18T19:39:25.465Z,48.59
2022-10-18T19:41:56.187Z,48.98
2022-10-18T19:44:27.459Z,48.07
2022-10-18T19:46:55.791Z,48.42
2022-10-18T19:49:24.295Z,47.96
2022-10-18T19:51:52.228Z,48.05
2022-10-18T19:54:20.193Z,47.90
2022-10-18T19:56:48.560Z,47.73
2022-10-18T19:59:18.467Z,47.01
2022-10-18T20:01:47.870Z,47.29
2022-10-18T20:04:16.694Z,47.15
2022-10-18T20:06:45.072Z,47.61
2022-10-18T20:09:17.691Z,47.57
2022-10-18T20:11:48.598Z,48.18
2022-10-18T20:14:16.605Z,48.53
2022-10-18T20:16:44.715Z,48.94
2022-10-18T20:19:14.027Z,49.85
2022-10-18T20:21:42.026Z,50.18
2022-10-18T20:24:11.907Z,49.91
2022-10-18T20:26:40.293Z,49.71
2022-10-18T20:29:08.796Z,49.69
2022-10-18T20:31:39.116Z,49.92
2022-10-18T20:34:08.926Z,49.82
2022-10-18T20:36:38.611Z,50.07
2022-10-18T20:39:07.805Z,50.56
2022-10-18T20:41:38.054Z,50.29
2022-10-18T20:44:10.653Z,50.36
2022-10-18T20:46:39.431Z,50.46
2022-10-18T20:49:09.380Z,50.99
2022-10-18T20:51:38.750Z,50.02
2022-10-18T20:54:11.295Z,50.42
2022-10-18T20:56:40.007Z,50.92
2022-10-18T20:59:10.159Z,50.64
2022-10-18T21:01:39.775Z,50.99
2022-10-18T21:04:09.109Z,51.44
2022-10-18T21:06:41.003Z,51.88
2022-10-18T21:09:11.720Z,51.90
2022-10-18T21:11:42.045Z,51.98
2022-10-18T21:14:12.579Z,52.56
2022-10-18T21:16:41.179Z,52.92
2022-10-18T21:19:12.392Z,52.24
2022-10-18T21:21:44.004Z,51.42
2022-10-18T21:24:12.737Z,52.70
2022-10-18T21:26:41.008Z,51.44
2022-10-18T21:29:09.644Z,52.34
2022-10-18T21:31:40.091Z,52.49
2022-10-18T21:34:10.307Z,52.54
2022-10-18T21:36:38.584Z,52.82
2022-10-18T21:39:09.963Z,52.95
2022-10-18T21:41:38.171Z,53.87
2022-10-18T21:44:09.837Z,53.83
2022-10-18T21:46:39.265Z,54.04
2022-10-18T21:49:08.371Z,54.04
2022-10-18T21:51:36.416Z,53.59
2022-10-18T21:54:04.617Z,53.97
2022-10-18T21:56:35.918Z,53.30
2022-10-18T21:59:04.066Z,53.42
2022-10-18T22:01:33.562Z,53.85
2022-10-18T22:04:08.560Z,53.66
2022-10-18T22:06:37.977Z,53.52
2022-10-18T22:09:08.960Z,54.25
2022-10-18T22:11:41.732Z,54.62
2022-10-18T22:14:10.005Z,54.97
2022-10-18T22:16:38.150Z,55.51
2022-10-18T22:19:07.185Z,55.51
2022-10-18T22:21:35.390Z,55.44
2022-10-18T22:24:07.882Z,55.23
2022-10-18T22:26:39.469Z,55.89
2022-10-18T22:29:18.305Z,56.26
2022-10-18T22:31:47.907Z,56.67
2022-10-18T22:34:17.825Z,57.46
2022-10-18T22:36:46.051Z,57.81
2022-10-18T22:39:15.365Z,58.69
2022-10-18T22:41:44.995Z,58.09
2022-10-18T22:44:14.173Z,58.15
2022-10-18T22:46:42.905Z,58.65
2022-10-18T22:49:12.067Z,58.99
2022-10-18T22:51:39.830Z,58.87
2022-10-18T22:54:07.857Z,59.02
2022-10-18T22:56:35.913Z,58.64
2022-10-18T22:59:05.405Z,58.47
2022-10-18T23:01:33.339Z,58.96
2022-10-18T23:04:02.240Z,59.54
2022-10-18T23:06:31.918Z,59.61
2022-10-18T23:09:01.800Z,58.42
2022-10-18T23:11:30.595Z,58.70
2022-10-18T23:13:58.697Z,59.26
2022-10-18T23:16:29.509Z,59.16
2022-10-18T23:18:59.146Z,58.37
2022-10-18T23:21:28.798Z,59.26
2022-10-18T23:23:57.670Z,60.80
2022-10-18T23:26:28.277Z,60.25
2022-10-18T23:28:56.510Z,59.95
2022-10-18T23:31:28.075Z,59.88
2022-10-18T23:33:57.549Z,58.82
2022-10-18T23:36:25.777Z,59.12
2022-10-18T23:38:54.459Z,58.91
2022-10-18T23:41:23.140Z,58.68
2022-10-18T23:43:51.546Z,58.87
2022-10-18T23:46:20.778Z,59.08
2022-10-18T23:48:50.546Z,60.72
2022-10-18T23:51:19.128Z,60.83
2022-10-18T23:53:47.269Z,61.11
2022-10-18T23:56:17.107Z,60.40
2022-10-18T23:58:45.713Z,59.92
